MGGTMSSS

Guest
Details From MGGT - La Aurora
To MSSS - ILOPANGO INTL
Flight Number -
Tags generated
Created
Modified
Stats Distance 98 nm / 181 km
Max Altitude 11,000 ft / 3,353 m
Waypoints 5
Social Downloads 0
Likes 0
Share VATSIM

Download

Looking for another format? Having issues loading an existing format? Contact us
Advertisement - Login to hide

Notes

Basic altitude profile: - Ascent Rate: 2500ft/min - Ascent Speed: 250kts - Cruise Altitude: 35000ft - Cruise Speed: 420kts - Descent Rate: 1500ft/min - Descent Speed: 250kts Options: - Use NATs: yes - Use PACOTS: yes - Use low airways: yes - Use high airways: yes

Route

MGGT ROSAM A770 KOSTO MSSS

ID Type Via Altitude Latitude Longitude Leg Dist Tot Dist Heading (true) Name
O MGGT APT - 0 ft / 0 m 14.58327˚ -90.52747˚ - 0 nm - La Aurora
ROSAM FIX - 8,900 ft / 2,713 m 14.35667˚ -90.16667˚ 25 nm 25 nm 123° / 123° -
MEGAL FIX A770 (AWY-LO) 11,000 ft / 3,353 m 14.08167˚ -89.73500˚ 30 nm 55 nm 123° / 123° -
KOSTO FIX A770 (AWY-LO) 11,000 ft / 3,353 m 13.91667˚ -89.47500˚ 18 nm 73 nm 123° / 123° -
O MSSS APT - 0 ft / 0 m 13.69880˚ -89.11985˚ 24 nm 97 nm 122° / 122° ILOPANGO INTL

Altitude Profile

Advertisement - Login to hide

MGGT

Details ICAO MGGT (GUA)
Name La Aurora
Region Guatemala
Timezone America/Guatemala (UTC-6.0)
Stats Elevation 4,952 ft / 1,509 m (AMSL)
Location 14.583272° -90.527473°
Runways 1
Magnetic Variation 1.070° E

METAR

MGGT 150400Z 02006KT 8000 FEW200 16/13 Q1026 A3030 HZ

Decode

TAF

TAF MGGT 142300Z 1500/1524 VRB03KT 9999 FEW016 TX25/1520Z TN11/1512Z BECMG 1506/1508 03008KT SCT015 BECMG 1515/1517 06008KT FEW018 BECMG 1520/1522 18008KT SCT020

Decode

Departure Runways

ID Width Length Bearing (true) Bearing (mag) Surface Threshold Offset Overrun Length
01 196 ft / 60 m 9,841 ft / 3,000 m 17.29° 16.22° Asphalt 0 ft / 0 m 0 ft / 0 m
19 196 ft / 60 m 9,841 ft / 3,000 m 197.29° 196.22° Asphalt 722 ft / 220 m 0 ft / 0 m

MSSS

Details ICAO MSSS
Name ILOPANGO INTL
Region El Salvador
Timezone America/El_Salvador (UTC-6.0)
Stats Elevation 2,020 ft / 616 m (AMSL)
Location 13.698802° -89.119849°
Runways 1
Magnetic Variation 0.450° E

METAR

MSSS 150350Z 00000KT CAVOK 21/19 Q1016 A3001

Decode

TAF

Not found

Destination Runways

ID Width Length Bearing (true) Bearing (mag) Surface Threshold Offset Overrun Length
15 148 ft / 45 m 7,350 ft / 2,240 m 153.66° 153.21° Asphalt 0 ft / 0 m 0 ft / 0 m
33 148 ft / 45 m 7,350 ft / 2,240 m 333.66° 333.21° Asphalt 0 ft / 0 m 0 ft / 0 m

Popular Alternatives